Time;durP1;ratioP1;P1;durP2;ratioP2;P2;SDS_P1;SDS_P2;PMS_P1;PMS_P2;Temp;Humidity;BMP_temperature;BMP_pressure;BME280_temperature;BME280_humidity;BME280_pressure;Samples;Min_cycle;Max_cycle;Signal;HPM_P1;HPM_P2
2023/07/28 06:45:34;;;;;;;0.50;0.45;;;19.80;99.90;;;;;;4908735;23;20234;-74
2023/07/28 06:48:00;;;;;;;1.05;0.52;;;19.90;99.90;;;;;;4883389;29;20226;-73
2023/07/28 06:50:27;;;;;;;0.88;0.45;;;20.00;99.90;;;;;;4889565;29;20685;-73
2023/07/28 06:52:54;;;;;;;0.45;0.40;;;20.00;99.90;;;;;;4897279;29;20230;-73
2023/07/28 06:55:21;;;;;;;0.60;0.50;;;20.10;99.90;;;;;;4894678;29;20203;-72
2023/07/28 06:57:49;;;;;;;0.75;0.55;;;20.10;99.90;;;;;;4893922;29;20234;-73
2023/07/28 07:00:17;;;;;;;3.38;0.60;;;20.30;99.90;;;;;;4896108;29;20211;-72
2023/07/28 07:02:45;;;;;;;0.40;0.30;;;20.40;99.90;;;;;;4894923;29;20231;-72
2023/07/28 07:05:12;;;;;;;0.70;0.52;;;20.40;99.90;;;;;;4896037;29;20217;-72
2023/07/28 07:07:40;;;;;;;1.00;0.50;;;20.50;99.90;;;;;;4895609;29;20693;-72
2023/07/28 07:10:08;;;;;;;1.15;0.55;;;20.40;99.90;;;;;;4895769;29;20676;-72
2023/07/28 07:12:34;;;;;;;0.60;0.40;;;20.50;99.90;;;;;;4899614;29;20249;-72
2023/07/28 07:15:01;;;;;;;0.40;0.35;;;20.50;99.90;;;;;;4899056;29;20720;-73
2023/07/28 07:17:28;;;;;;;0.70;0.40;;;20.50;99.90;;;;;;4899608;29;20586;-73
2023/07/28 07:19:56;;;;;;;0.30;0.30;;;20.50;99.90;;;;;;4900609;29;20211;-74
2023/07/28 07:22:23;;;;;;;0.45;0.25;;;20.40;99.90;;;;;;4900725;29;20321;-73
2023/07/28 07:24:50;;;;;;;0.75;0.30;;;20.50;99.90;;;;;;4900373;29;20313;-73
2023/07/28 07:27:17;;;;;;;0.30;0.20;;;20.60;99.90;;;;;;4900575;29;20210;-73
2023/07/28 07:29:43;;;;;;;1.50;0.43;;;20.60;99.90;;;;;;4900506;29;20572;-73
2023/07/28 07:32:11;;;;;;;0.45;0.20;;;20.60;99.90;;;;;;4900072;29;20256;-72
2023/07/28 07:34:38;;;;;;;0.50;0.30;;;20.80;99.90;;;;;;4900319;29;20214;-72
2023/07/28 07:37:06;;;;;;;1.33;0.25;;;21.00;99.90;;;;;;4900169;29;20241;-72
2023/07/28 07:39:33;;;;;;;1.92;0.30;;;21.10;99.90;;;;;;4900427;29;20637;-73
2023/07/28 07:42:00;;;;;;;0.20;0.15;;;21.20;99.90;;;;;;4900552;29;20317;-73
2023/07/28 07:44:28;;;;;;;0.30;0.20;;;21.10;99.90;;;;;;4900216;29;20249;-73
2023/07/28 07:46:55;;;;;;;3.03;0.38;;;21.10;99.90;;;;;;4899852;29;20269;-74
2023/07/28 07:49:23;;;;;;;0.70;0.35;;;21.00;99.90;;;;;;4900183;29;20206;-74
2023/07/28 07:51:50;;;;;;;1.45;0.47;;;21.00;99.90;;;;;;4899879;29;20269;-74
2023/07/28 07:54:18;;;;;;;0.60;0.30;;;21.10;99.90;;;;;;4900343;29;20210;-74
2023/07/28 07:56:46;;;;;;;0.40;0.40;;;21.20;99.90;;;;;;4900217;29;20744;-74
2023/07/28 07:59:13;;;;;;;0.82;0.60;;;21.40;99.90;;;;;;4900310;29;20246;-73
2023/07/28 08:01:40;;;;;;;1.10;0.57;;;21.40;99.90;;;;;;4899807;29;20240;-73
2023/07/28 08:04:07;;;;;;;0.40;0.40;;;21.70;99.90;;;;;;4900231;29;20301;-73
2023/07/28 08:06:33;;;;;;;1.30;0.82;;;21.80;99.90;;;;;;4900244;29;20206;-73
2023/07/28 08:09:01;;;;;;;1.08;0.60;;;21.90;99.90;;;;;;4899929;29;20210;-74
2023/07/28 08:11:29;;;;;;;0.60;0.50;;;22.00;99.90;;;;;;4899905;29;20242;-74
2023/07/28 08:13:56;;;;;;;0.90;0.60;;;22.10;99.90;;;;;;4899792;29;20216;-73
2023/07/28 08:16:23;;;;;;;0.88;0.50;;;22.20;99.90;;;;;;4899681;29;20213;-74
2023/07/28 08:18:50;;;;;;;0.47;0.40;;;22.30;99.90;;;;;;4899990;29;20319;-74
2023/07/28 08:21:17;;;;;;;1.08;0.60;;;22.50;99.90;;;;;;4899453;29;20215;-74
2023/07/28 08:23:43;;;;;;;0.98;0.43;;;22.30;99.90;;;;;;4899274;29;20214;-72
2023/07/28 08:26:10;;;;;;;0.90;0.40;;;22.30;99.90;;;;;;4899597;29;20214;-73
2023/07/28 08:28:38;;;;;;;0.55;0.47;;;22.20;99.90;;;;;;4899561;29;20236;-73
2023/07/28 08:31:05;;;;;;;0.60;0.38;;;22.20;99.90;;;;;;4899274;29;20214;-74
2023/07/28 08:33:32;;;;;;;0.40;0.35;;;22.20;99.90;;;;;;4899471;29;20221;-73
2023/07/28 08:35:59;;;;;;;0.70;0.40;;;22.40;99.90;;;;;;4899296;29;20657;-74
2023/07/28 08:38:26;;;;;;;1.67;0.38;;;22.60;99.90;;;;;;4899359;29;20304;-74
2023/07/28 08:40:53;;;;;;;0.60;0.40;;;22.90;99.90;;;;;;4899344;29;20262;-74
2023/07/28 08:43:20;;;;;;;1.02;0.52;;;23.40;99.90;;;;;;4898987;29;20237;-73
2023/07/28 08:45:48;;;;;;;0.80;0.50;;;23.70;99.90;;;;;;4899084;29;20228;-73
2023/07/28 08:48:15;;;;;;;1.48;0.60;;;23.60;99.90;;;;;;4899289;29;20273;-73
2023/07/28 08:50:42;;;;;;;1.17;0.50;;;23.40;99.90;;;;;;4898957;29;20210;-74
2023/07/28 08:53:09;;;;;;;0.73;0.50;;;23.20;99.90;;;;;;4898707;29;20238;-74
2023/07/28 08:55:36;;;;;;;0.55;0.43;;;23.10;99.90;;;;;;4898802;29;20221;-74
2023/07/28 08:58:15;;;;;;;0.65;0.40;;;23.10;99.90;;;;;;4898934;29;20214;-73
2023/07/28 09:00:43;;;;;;;0.55;0.40;;;22.90;99.90;;;;;;4898843;29;20215;-74
2023/07/28 09:03:12;;;;;;;0.30;0.30;;;22.70;99.90;;;;;;4898644;29;20238;-74
2023/07/28 09:05:40;;;;;;;0.50;0.30;;;22.60;99.90;;;;;;4898825;29;20301;-73
2023/07/28 09:08:07;;;;;;;0.60;0.30;;;22.70;99.90;;;;;;4898787;29;20266;-73
2023/07/28 09:10:42;;;;;;;0.85;0.40;;;22.80;99.90;;;;;;4898648;29;20214;-74
2023/07/28 09:13:10;;;;;;;0.55;0.30;;;22.90;99.90;;;;;;4898815;29;20242;-74
2023/07/28 09:15:37;;;;;;;1.63;0.40;;;22.70;99.90;;;;;;4898670;29;20701;-74
2023/07/28 09:18:04;;;;;;;0.47;0.20;;;22.80;99.90;;;;;;4898658;29;20217;-73
2023/07/28 09:20:37;;;;;;;0.43;0.35;;;22.80;99.90;;;;;;4898447;29;20555;-73
2023/07/28 09:23:05;;;;;;;2.22;0.30;;;23.10;99.90;;;;;;4898265;29;20895;-74
2023/07/28 09:25:33;;;;;;;0.43;0.32;;;23.20;99.90;;;;;;4898636;29;20218;-73
2023/07/28 09:28:00;;;;;;;0.38;0.30;;;23.30;99.90;;;;;;4898423;29;20214;-74
2023/07/28 09:30:27;;;;;;;0.35;0.25;;;23.30;99.90;;;;;;4898578;29;20210;-73
2023/07/28 09:32:55;;;;;;;0.47;0.20;;;23.20;99.90;;;;;;4898006;29;20313;-74
2023/07/28 09:35:23;;;;;;;0.50;0.28;;;23.10;99.90;;;;;;4898465;29;20220;-74
2023/07/28 09:37:54;;;;;;;0.30;0.30;;;23.00;99.90;;;;;;4898566;29;20304;-74
2023/07/28 09:40:23;;;;;;;0.65;0.32;;;22.70;99.90;;;;;;4898433;29;20214;-74
2023/07/28 09:42:51;;;;;;;0.55;0.40;;;22.60;99.90;;;;;;4897901;29;20234;-74
2023/07/28 09:45:19;;;;;;;0.50;0.30;;;22.40;99.90;;;;;;4897942;29;20218;-74
2023/07/28 09:47:47;;;;;;;0.70;0.30;;;22.20;99.90;;;;;;4897929;29;20216;-74
2023/07/28 09:50:16;;;;;;;1.65;0.30;;;22.20;99.90;;;;;;4898578;29;20213;-74
2023/07/28 09:52:45;;;;;;;1.17;0.52;;;22.30;99.90;;;;;;4898072;29;20242;-74
2023/07/28 09:55:16;;;;;;;0.75;0.40;;;22.60;99.90;;;;;;4898200;29;20214;-73
2023/07/28 09:57:46;;;;;;;0.68;0.50;;;23.00;99.90;;;;;;4898120;29;20696;-74
2023/07/28 10:00:15;;;;;;;0.52;0.40;;;23.40;99.90;;;;;;4898355;29;20243;-74
2023/07/28 10:02:43;;;;;;;1.38;0.57;;;23.80;99.90;;;;;;4897800;29;20230;-73
2023/07/28 10:05:11;;;;;;;1.00;0.35;;;24.40;99.90;;;;;;4898162;29;20297;-74
2023/07/28 10:07:41;;;;;;;0.88;0.45;;;24.70;99.90;;;;;;4897887;29;20210;-74
2023/07/28 10:10:11;;;;;;;0.40;0.40;;;24.60;99.90;;;;;;4897801;29;20328;-74
2023/07/28 10:12:43;;;;;;;0.70;0.43;;;24.80;99.90;;;;;;4897578;29;20697;-73
2023/07/28 10:15:15;;;;;;;1.20;0.60;;;24.90;99.90;;;;;;4897576;29;20218;-74
2023/07/28 10:17:45;;;;;;;0.50;0.43;;;25.20;99.90;;;;;;4897841;29;20213;-73
2023/07/28 10:20:32;;;;;;;0.50;0.43;;;25.10;99.90;;;;;;4897760;29;20301;-72
2023/07/28 10:23:07;;;;;;;0.70;0.40;;;24.60;99.90;;;;;;4897457;29;20238;-74
2023/07/28 10:25:35;;;;;;;0.47;0.40;;;25.00;99.90;;;;;;4897474;29;20210;-73
2023/07/28 10:28:05;;;;;;;0.63;0.55;;;25.10;99.90;;;;;;4897865;29;20206;-73
2023/07/28 10:30:38;;;;;;;0.65;0.60;;;24.90;99.90;;;;;;4897906;29;20270;-73
2023/07/28 10:33:05;;;;;;;0.63;0.40;;;24.70;99.90;;;;;;4897280;29;20242;-74
2023/07/28 10:35:33;;;;;;;2.72;0.50;;;24.10;99.90;;;;;;4897507;29;20759;-75
2023/07/28 10:38:31;;;;;;;0.55;0.40;;;24.20;99.90;;;;;;4897434;29;20666;-73
2023/07/28 10:41:08;;;;;;;0.77;0.50;;;24.30;99.90;;;;;;4897385;29;20573;-73
2023/07/28 10:43:36;;;;;;;0.85;0.38;;;24.60;99.90;;;;;;4897302;29;20218;-74
2023/07/28 10:46:04;;;;;;;3.00;0.50;;;24.60;99.90;;;;;;4899254;29;20394;-73
2023/07/28 10:48:31;;;;;;;1.27;0.60;;;24.70;99.90;;;;;;4901255;29;20214;-73
2023/07/28 10:50:58;;;;;;;0.80;0.60;;;24.80;99.90;;;;;;4901498;29;20293;-73
2023/07/28 10:53:25;;;;;;;0.70;0.60;;;25.20;99.90;;;;;;4901134;29;20340;-73
2023/07/28 10:55:53;;;;;;;1.17;0.70;;;25.40;99.90;;;;;;4901248;29;20749;-74
2023/07/28 10:58:20;;;;;;;0.82;0.80;;;25.50;99.90;;;;;;4901266;29;20217;-73
2023/07/28 11:00:51;;;;;;;1.38;1.10;;;25.50;99.90;;;;;;4900883;29;20230;-74
2023/07/28 11:03:19;;;;;;;4.25;1.15;;;25.50;99.90;;;;;;4901168;29;20286;-72
2023/07/28 11:05:49;;;;;;;2.38;1.45;;;25.50;99.90;;;;;;4901141;29;20610;-73
2023/07/28 11:08:15;;;;;;;2.15;1.40;;;24.90;99.90;;;;;;4900737;29;20211;-72
2023/07/28 11:10:42;;;;;;;3.17;1.73;;;24.70;99.90;;;;;;4900651;29;20218;-72
2023/07/28 11:13:09;;;;;;;2.00;1.55;;;24.70;99.90;;;;;;4900763;29;20278;-73
2023/07/28 11:15:36;;;;;;;2.08;1.65;;;24.90;99.90;;;;;;4900782;29;20301;-73
2023/07/28 11:18:06;;;;;;;1.58;1.38;;;25.00;99.90;;;;;;4900823;29;20573;-73
2023/07/28 11:20:33;;;;;;;1.15;1.00;;;25.00;99.90;;;;;;4901029;29;20207;-72
2023/07/28 11:23:01;;;;;;;2.85;1.20;;;25.00;99.90;;;;;;4900703;29;20237;-73
2023/07/28 11:25:29;;;;;;;1.42;1.02;;;25.40;99.90;;;;;;4900696;29;20566;-73
2023/07/28 11:27:57;;;;;;;1.27;0.90;;;25.60;99.90;;;;;;4900460;29;20206;-73
2023/07/28 11:30:24;;;;;;;1.45;1.10;;;25.70;99.90;;;;;;4900407;29;20297;-73
2023/07/28 11:32:53;;;;;;;0.95;0.73;;;25.70;99.90;;;;;;4900127;29;20701;-73
2023/07/28 11:35:22;;;;;;;1.15;0.80;;;25.80;99.90;;;;;;4900293;29;20722;-73
2023/07/28 11:37:51;;;;;;;1.13;0.90;;;26.00;99.90;;;;;;4900648;29;20641;-73
2023/07/28 11:40:20;;;;;;;0.82;0.63;;;26.10;99.90;;;;;;4900321;29;20214;-73
2023/07/28 11:42:49;;;;;;;1.60;0.75;;;26.30;99.90;;;;;;4900401;29;20227;-73
2023/07/28 11:45:19;;;;;;;0.80;0.80;;;25.90;99.90;;;;;;4900150;29;20218;-73
2023/07/28 11:47:59;;;;;;;1.95;0.80;;;25.50;99.90;;;;;;4899957;29;20618;-73
2023/07/28 11:50:29;;;;;;;0.90;0.80;;;25.40;99.90;;;;;;4900281;29;20210;-74
2023/07/28 11:52:57;;;;;;;1.30;0.98;;;25.60;99.90;;;;;;4899881;29;20249;-72
2023/07/28 11:55:24;;;;;;;1.05;0.82;;;26.00;99.90;;;;;;4900113;29;20553;-73
2023/07/28 11:57:53;;;;;;;1.05;0.90;;;26.10;99.90;;;;;;4899595;29;20578;-73
2023/07/28 12:00:26;;;;;;;1.15;0.93;;;26.50;99.90;;;;;;4899979;29;20297;-73
2023/07/28 12:03:03;;;;;;;0.80;0.75;;;26.60;99.90;;;;;;4899970;29;20313;-73
2023/07/28 12:05:32;;;;;;;0.85;0.85;;;26.30;99.90;;;;;;4900012;29;20220;-73
2023/07/28 12:07:59;;;;;;;1.13;0.90;;;26.20;99.90;;;;;;4899975;29;20301;-73
2023/07/28 12:10:27;;;;;;;1.27;0.98;;;26.30;99.90;;;;;;4899882;29;20225;-73
2023/07/28 12:12:54;;;;;;;1.30;0.90;;;26.20;99.90;;;;;;4899816;29;20245;-73
2023/07/28 12:15:23;;;;;;;0.95;0.85;;;26.10;99.90;;;;;;4900063;29;20244;-73
2023/07/28 12:18:09;;;;;;;2.17;0.80;;;26.40;99.90;;;;;;4899774;29;20313;-74
2023/07/28 12:20:39;;;;;;;0.88;0.80;;;26.30;99.90;;;;;;4899711;29;20210;-73
2023/07/28 12:23:06;;;;;;;1.15;1.00;;;25.80;99.90;;;;;;4899323;29;20237;-73
2023/07/28 12:25:33;;;;;;;1.15;0.85;;;25.70;99.90;;;;;;4899712;29;20217;-73
2023/07/28 12:28:00;;;;;;;0.93;0.82;;;25.50;99.90;;;;;;4899625;29;20222;-73
2023/07/28 12:30:27;;;;;;;1.35;0.80;;;25.50;99.90;;;;;;4899712;29;20247;-73
2023/07/28 12:32:54;;;;;;;2.25;0.90;;;25.50;99.90;;;;;;4899483;29;20246;-73
2023/07/28 12:35:23;;;;;;;1.40;0.88;;;25.30;99.90;;;;;;4899334;29;20210;-74
2023/07/28 12:37:51;;;;;;;1.02;0.60;;;25.30;99.90;;;;;;4899633;29;20210;-73
2023/07/28 12:40:19;;;;;;;1.20;0.70;;;25.00;99.90;;;;;;4899618;29;20266;-73
2023/07/28 12:42:47;;;;;;;1.35;0.60;;;25.20;99.90;;;;;;4899743;29;20230;-73
2023/07/28 12:45:14;;;;;;;1.10;0.80;;;25.20;99.90;;;;;;4898872;29;20222;-73
2023/07/28 12:47:41;;;;;;;1.05;0.70;;;25.10;99.90;;;;;;4898843;29;20721;-73
2023/07/28 12:50:09;;;;;;;0.75;0.75;;;25.00;99.90;;;;;;4899284;29;20305;-73
2023/07/28 12:52:36;;;;;;;0.95;0.68;;;25.00;99.90;;;;;;4898809;29;20250;-73
2023/07/28 12:55:05;;;;;;;1.35;0.80;;;25.00;99.90;;;;;;4898968;29;20210;-74
2023/07/28 12:57:32;;;;;;;0.75;0.50;;;24.90;99.90;;;;;;4898559;29;20213;-74
2023/07/28 12:59:59;;;;;;;1.13;0.60;;;25.10;99.90;;;;;;4898674;29;20222;-73
2023/07/28 13:02:26;;;;;;;0.82;0.55;;;25.40;99.90;;;;;;4898847;29;20230;-73
2023/07/28 13:04:53;;;;;;;1.10;0.52;;;25.50;99.90;;;;;;4898745;29;20685;-73
2023/07/28 13:07:19;;;;;;;1.00;0.60;;;25.60;99.90;;;;;;4898670;29;20256;-73
2023/07/28 13:09:46;;;;;;;1.15;0.70;;;25.50;99.90;;;;;;4898194;29;20373;-73
2023/07/28 13:12:14;;;;;;;0.82;0.60;;;25.40;99.90;;;;;;4898695;29;20242;-74
2023/07/28 13:14:41;;;;;;;0.95;0.65;;;25.60;99.90;;;;;;4898710;29;20329;-74
2023/07/28 13:17:08;;;;;;;0.75;0.55;;;25.50;99.90;;;;;;4898368;29;20573;-74
2023/07/28 13:19:35;;;;;;;1.38;0.70;;;25.60;99.90;;;;;;4898352;29;20305;-73
2023/07/28 13:22:02;;;;;;;0.73;0.60;;;25.80;99.90;;;;;;4898597;29;20238;-73
2023/07/28 13:24:28;;;;;;;0.98;0.40;;;26.10;99.90;;;;;;4898513;29;20306;-74
2023/07/28 13:26:55;;;;;;;1.38;0.68;;;26.40;99.90;;;;;;4898267;29;20685;-73
2023/07/28 13:29:23;;;;;;;0.88;0.70;;;26.40;99.90;;;;;;4898393;29;20207;-73
2023/07/28 13:31:50;;;;;;;0.60;0.50;;;26.20;99.90;;;;;;4898460;29;20294;-73
2023/07/28 13:34:17;;;;;;;0.52;0.50;;;26.00;99.90;;;;;;4898269;29;20235;-73
2023/07/28 13:36:44;;;;;;;1.15;0.85;;;25.90;99.90;;;;;;4898264;29;20258;-74
2023/07/28 13:39:11;;;;;;;0.63;0.52;;;25.70;99.90;;;;;;4898281;29;20221;-74
2023/07/28 13:41:38;;;;;;;0.98;0.50;;;25.70;99.90;;;;;;4898242;29;20644;-73
2023/07/28 13:44:05;;;;;;;0.88;0.70;;;25.60;99.90;;;;;;4898393;29;20673;-73
2023/07/28 13:46:33;;;;;;;1.58;0.60;;;25.60;99.90;;;;;;4897904;29;20658;-73
2023/07/28 13:49:00;;;;;;;0.80;0.60;;;25.70;99.90;;;;;;4897982;29;20210;-73
2023/07/28 13:51:27;;;;;;;1.98;0.60;;;25.80;99.90;;;;;;4897878;29;20234;-73
2023/07/28 13:53:54;;;;;;;1.38;0.65;;;25.90;99.90;;;;;;4897468;29;20241;-73
2023/07/28 13:56:21;;;;;;;1.08;0.57;;;26.10;99.90;;;;;;4898339;29;20258;-73
2023/07/28 13:58:47;;;;;;;0.60;0.50;;;26.10;99.90;;;;;;4898302;29;20210;-73
2023/07/28 14:01:14;;;;;;;1.05;0.65;;;26.00;99.90;;;;;;4897819;29;20297;-74
2023/07/28 14:03:44;;;;;;;0.60;0.50;;;26.00;99.90;;;;;;4898213;29;20725;-73
2023/07/28 14:06:10;;;;;;;0.73;0.50;;;26.10;99.90;;;;;;4897923;29;20214;-73
2023/07/28 14:08:37;;;;;;;0.55;0.50;;;25.90;99.90;;;;;;4898169;29;20220;-74
2023/07/28 14:11:04;;;;;;;0.90;0.60;;;25.80;99.90;;;;;;4897966;29;20305;-74
2023/07/28 14:13:32;;;;;;;0.77;0.50;;;25.80;99.90;;;;;;4897880;29;20234;-73
2023/07/28 14:15:59;;;;;;;0.90;0.52;;;25.50;99.90;;;;;;4897784;29;20206;-73
2023/07/28 14:33:19;;;;;;;1.23;0.55;;;25.30;99.90;;;;;;5131523;27;20565;-74
2023/07/28 14:35:47;;;;;;;1.92;0.98;;;26.10;99.90;;;;;;5131262;27;20197;-74
2023/07/28 14:38:14;;;;;;;0.70;0.68;;;26.40;99.90;;;;;;5131200;27;20208;-74
2023/07/28 14:40:44;;;;;;;1.33;0.60;;;26.40;99.90;;;;;;5131298;27;20266;-75
2023/07/28 14:43:10;;;;;;;0.50;0.50;;;26.50;99.90;;;;;;5130899;27;20223;-72
2023/07/28 14:45:37;;;;;;;0.50;0.40;;;26.60;99.90;;;;;;5130880;27;20212;-74
2023/07/28 14:48:04;;;;;;;0.80;0.50;;;26.50;99.90;;;;;;5130921;27;20201;-74
2023/07/28 14:50:32;;;;;;;1.98;1.25;;;26.40;99.90;;;;;;5130740;27;20197;-74
2023/07/28 14:53:00;;;;;;;0.88;0.68;;;26.30;99.90;;;;;;5130543;27;20312;-74
2023/07/28 14:55:27;;;;;;;1.25;0.75;;;26.10;99.90;;;;;;5131027;27;20207;-77
2023/07/28 14:57:54;;;;;;;1.45;0.80;;;25.80;99.90;;;;;;5130955;27;20201;-75
2023/07/28 15:00:20;;;;;;;0.73;0.60;;;25.70;99.90;;;;;;5130646;27;20296;-74
2023/07/28 15:02:47;;;;;;;0.93;0.60;;;25.50;99.90;;;;;;5130554;27;20704;-74
2023/07/28 15:05:14;;;;;;;1.75;0.60;;;25.50;99.90;;;;;;5130549;27;20653;-74
2023/07/28 15:07:42;;;;;;;0.90;0.50;;;25.40;99.90;;;;;;5130871;27;20426;-77
2023/07/28 15:10:09;;;;;;;2.70;0.98;;;25.40;99.90;;;;;;5130741;27;20205;-75
2023/07/28 15:12:36;;;;;;;1.95;0.88;;;25.30;99.90;;;;;;5130306;27;20217;-73
2023/07/28 15:15:03;;;;;;;0.82;0.68;;;25.30;99.90;;;;;;5130327;27;20208;-75
2023/07/28 15:17:30;;;;;;;13.05;2.72;;;25.20;99.90;;;;;;5130296;27;20208;-75
2023/07/28 15:19:57;;;;;;;27.50;6.28;;;25.30;99.90;;;;;;5130056;27;20212;-70
2023/07/28 15:22:23;;;;;;;44.33;9.90;;;25.30;99.90;;;;;;5129724;27;20228;-70
2023/07/28 15:24:52;;;;;;;36.45;6.72;;;25.20;99.90;;;;;;5129616;27;20197;-70
2023/07/28 15:27:18;;;;;;;3.13;1.38;;;25.30;99.90;;;;;;5129316;27;20208;-70
2023/07/28 15:29:45;;;;;;;1.38;0.63;;;25.50;99.90;;;;;;5129697;27;20205;-69
2023/07/28 15:32:12;;;;;;;62.67;12.73;;;25.80;99.90;;;;;;5128038;27;20209;-70
2023/07/28 15:34:39;;;;;;;1.90;1.40;;;25.80;99.90;;;;;;5116072;28;20218;-70
2023/07/28 15:37:06;;;;;;;32.92;6.38;;;25.80;99.90;;;;;;5116566;28;20298;-72
2023/07/28 15:39:32;;;;;;;17.98;3.95;;;25.80;99.90;;;;;;5116375;28;20201;-69
2023/07/28 15:42:01;;;;;;;12.18;3.65;;;25.90;99.90;;;;;;5116149;28;20239;-71
2023/07/28 15:44:28;;;;;;;61.10;14.90;;;25.90;99.90;;;;;;5115989;28;20217;-70
2023/07/28 15:46:54;;;;;;;3.45;1.08;;;26.00;99.90;;;;;;5116024;28;20201;-70
2023/07/28 15:49:21;;;;;;;1.17;0.85;;;26.10;99.90;;;;;;5116231;28;20229;-69
2023/07/28 15:51:48;;;;;;;16.58;2.95;;;25.90;99.90;;;;;;5116376;28;20254;-70
2023/07/28 15:54:15;;;;;;;58.17;13.43;;;25.90;99.90;;;;;;5116179;28;20218;-70
2023/07/28 15:56:42;;;;;;;15.82;4.20;;;25.90;99.90;;;;;;5115856;28;20572;-71
2023/07/28 15:59:10;;;;;;;3.15;1.10;;;25.90;99.90;;;;;;5115783;28;20300;-71
2023/07/28 16:01:36;;;;;;;0.80;0.60;;;25.90;99.90;;;;;;5115735;28;20592;-72
2023/07/28 16:04:04;;;;;;;1.10;0.80;;;25.70;99.90;;;;;;5115822;28;20225;-69
2023/07/28 16:06:30;;;;;;;1.10;0.88;;;25.90;99.90;;;;;;5115913;28;20284;-70
2023/07/28 16:08:57;;;;;;;0.80;0.60;;;26.00;99.90;;;;;;5116079;28;20305;-75
2023/07/28 16:11:24;;;;;;;1.02;0.63;;;26.10;99.90;;;;;;5115975;28;20610;-75
2023/07/28 16:13:51;;;;;;;0.65;0.60;;;25.90;99.90;;;;;;5115563;28;20305;-72
2023/07/28 16:16:19;;;;;;;2.30;0.80;;;25.90;99.90;;;;;;5115638;28;20602;-72
2023/07/28 16:18:46;;;;;;;1.13;0.82;;;25.70;99.90;;;;;;5115562;28;20553;-73
2023/07/28 16:21:13;;;;;;;0.88;0.68;;;25.60;99.90;;;;;;5115518;28;20283;-71
2023/07/28 16:23:40;;;;;;;1.60;0.70;;;25.60;99.90;;;;;;5115855;27;20222;-75
2023/07/28 16:26:07;;;;;;;2.40;0.65;;;25.50;99.90;;;;;;5115573;28;20208;-73
2023/07/28 16:28:33;;;;;;;1.05;0.60;;;25.60;99.90;;;;;;5114991;28;20232;-72
2023/07/28 16:31:00;;;;;;;3.25;1.35;;;25.70;99.90;;;;;;5115058;28;20202;-75
2023/07/28 16:33:28;;;;;;;1.95;1.08;;;25.50;99.90;;;;;;5115360;28;20222;-74
2023/07/28 16:35:56;;;;;;;2.22;1.20;;;25.50;99.90;;;;;;5115062;28;20688;-76
2023/07/28 16:38:23;;;;;;;2.78;1.10;;;25.60;99.90;;;;;;5115289;28;20206;-75
2023/07/28 16:40:50;;;;;;;1.83;0.85;;;25.70;99.90;;;;;;5116510;28;20230;-76
2023/07/28 16:43:16;;;;;;;1.42;1.00;;;25.70;99.90;;;;;;5114942;28;20244;-71
2023/07/28 16:45:43;;;;;;;1.38;0.75;;;25.70;99.90;;;;;;5114115;28;20206;-72
2023/07/28 16:48:10;;;;;;;1.20;0.65;;;25.70;99.90;;;;;;5116281;28;20212;-68
2023/07/28 16:50:38;;;;;;;0.82;0.70;;;25.60;99.90;;;;;;5117087;28;20278;-69
2023/07/28 16:53:05;;;;;;;1.92;0.70;;;25.50;99.90;;;;;;5116109;28;20218;-68
2023/07/28 16:55:32;;;;;;;0.93;0.80;;;25.30;99.90;;;;;;5116144;28;20209;-69
2023/07/28 16:57:59;;;;;;;0.77;0.50;;;25.30;99.90;;;;;;5116449;28;20198;-68
2023/07/28 17:00:26;;;;;;;1.33;0.70;;;25.20;99.90;;;;;;5115770;28;20263;-69
2023/07/28 17:02:53;;;;;;;1.10;0.65;;;25.10;99.90;;;;;;5114853;28;20233;-69
2023/07/28 17:05:20;;;;;;;1.17;0.68;;;25.00;99.90;;;;;;5114838;28;20201;-68
2023/07/28 17:07:48;;;;;;;1.30;0.70;;;24.90;99.90;;;;;;5114831;28;20736;-69
2023/07/28 17:10:14;;;;;;;0.73;0.60;;;24.90;99.90;;;;;;5114718;28;20204;-70
2023/07/28 17:12:42;;;;;;;1.00;0.65;;;25.00;99.90;;;;;;5114676;28;20264;-69
2023/07/28 17:15:09;;;;;;;1.65;0.80;;;25.10;99.90;;;;;;5114505;28;20206;-69
2023/07/28 17:17:36;;;;;;;1.27;0.85;;;25.00;99.90;;;;;;5105760;27;20193;-71
2023/07/28 17:20:03;;;;;;;5.82;3.25;;;25.10;99.90;;;;;;5107042;28;20665;-72
2023/07/28 17:22:30;;;;;;;1.00;0.70;;;24.90;99.90;;;;;;5113765;28;20324;-70
2023/07/28 17:24:58;;;;;;;1.52;1.02;;;24.80;99.90;;;;;;5108008;28;20650;-70
2023/07/28 17:27:25;;;;;;;1.70;0.82;;;24.70;99.90;;;;;;5095721;28;20285;-71
2023/07/28 17:29:52;;;;;;;1.58;0.88;;;24.80;99.90;;;;;;5104033;28;20295;-70
2023/07/28 17:32:19;;;;;;;1.08;0.70;;;24.90;99.90;;;;;;5103352;28;20214;-70
2023/07/28 17:34:46;;;;;;;1.13;0.88;;;24.80;99.90;;;;;;5104063;28;20213;-70
2023/07/28 17:37:12;;;;;;;0.85;0.68;;;24.70;99.90;;;;;;5100388;28;20202;-70
2023/07/28 17:39:39;;;;;;;1.08;0.70;;;24.70;99.90;;;;;;5100273;28;20208;-70
2023/07/28 17:42:07;;;;;;;0.95;0.82;;;24.70;99.90;;;;;;5105240;28;20232;-70
2023/07/28 17:44:34;;;;;;;1.20;0.82;;;24.70;99.90;;;;;;5101533;28;20227;-70
2023/07/28 17:47:01;;;;;;;0.90;0.70;;;24.60;99.90;;;;;;5097752;28;20202;-70
2023/07/28 17:49:28;;;;;;;5.35;2.92;;;24.60;99.90;;;;;;5103052;28;20210;-70
2023/07/28 17:51:55;;;;;;;1.48;1.13;;;24.50;99.90;;;;;;5110436;28;20250;-71
2023/07/28 17:54:22;;;;;;;0.90;0.60;;;24.60;99.90;;;;;;5099177;28;20219;-69
2023/07/28 17:56:49;;;;;;;3.00;0.70;;;24.40;99.90;;;;;;5110660;28;20596;-70
2023/07/28 17:59:17;;;;;;;0.80;0.60;;;24.40;99.90;;;;;;5108664;28;20198;-70
2023/07/28 18:01:44;;;;;;;1.05;0.65;;;24.40;99.90;;;;;;5103984;28;20201;-68
2023/07/28 18:04:11;;;;;;;0.82;0.63;;;24.20;99.90;;;;;;5112544;28;20253;-69
2023/07/28 18:06:38;;;;;;;3.22;0.60;;;24.20;99.90;;;;;;5100225;28;20209;-70
2023/07/28 18:09:05;;;;;;;1.60;0.73;;;24.00;99.90;;;;;;5105614;28;20198;-72
2023/07/28 18:11:32;;;;;;;1.05;0.75;;;24.00;99.90;;;;;;5104583;28;20242;-73
2023/07/28 18:13:59;;;;;;;1.00;0.70;;;23.90;99.90;;;;;;5098671;28;20228;-72
2023/07/28 18:16:27;;;;;;;1.00;0.80;;;23.80;99.90;;;;;;5110636;28;20201;-70
2023/07/28 18:18:54;;;;;;;1.20;0.80;;;23.60;99.90;;;;;;5110960;28;20292;-69
2023/07/28 18:21:21;;;;;;;1.75;0.82;;;23.60;99.90;;;;;;5110020;28;20210;-71
2023/07/28 18:23:51;;;;;;;0.70;0.70;;;23.50;99.90;;;;;;5109042;28;20233;-74
2023/07/28 18:26:18;;;;;;;0.60;0.50;;;23.60;99.90;;;;;;5110479;28;20471;-71
2023/07/28 18:28:44;;;;;;;1.00;0.70;;;23.50;99.90;;;;;;5110480;28;20565;-71
2023/07/28 18:31:11;;;;;;;0.85;0.57;;;23.30;99.90;;;;;;5110216;28;20209;-74
2023/07/28 18:33:40;;;;;;;1.88;0.60;;;23.30;99.90;;;;;;5094149;28;20308;-76
2023/07/28 18:36:07;;;;;;;1.25;0.80;;;23.30;99.90;;;;;;5095124;28;20332;-77
2023/07/28 18:38:34;;;;;;;0.75;0.60;;;23.20;99.90;;;;;;5109445;28;20201;-71
2023/07/28 18:41:00;;;;;;;0.70;0.60;;;23.10;99.90;;;;;;5110422;28;20202;-74
2023/07/28 18:43:28;;;;;;;0.68;0.60;;;23.10;99.90;;;;;;5098277;28;20334;-72
2023/07/28 18:45:55;;;;;;;1.20;0.63;;;23.00;99.90;;;;;;5100692;28;20213;-75
2023/07/28 18:48:21;;;;;;;0.80;0.50;;;22.80;99.90;;;;;;5107654;28;20243;-76
2023/07/28 18:50:50;;;;;;;1.15;0.80;;;22.80;99.90;;;;;;5111306;28;20201;-69
2023/07/28 18:53:17;;;;;;;1.38;0.70;;;22.70;99.90;;;;;;5109550;28;20218;-68
2023/07/28 18:55:44;;;;;;;0.80;0.60;;;22.60;99.90;;;;;;5110674;28;20300;-76
2023/07/28 18:58:11;;;;;;;0.80;0.60;;;22.60;99.90;;;;;;5100954;28;20217;-75
2023/07/28 19:00:38;;;;;;;2.10;0.70;;;22.70;99.90;;;;;;5107649;28;20204;-77
2023/07/28 19:03:05;;;;;;;0.77;0.50;;;22.60;99.90;;;;;;5103320;27;20600;-74
2023/07/28 19:05:32;;;;;;;0.60;0.50;;;22.50;99.90;;;;;;5110341;28;20237;-73
2023/07/28 19:08:00;;;;;;;0.90;0.52;;;22.50;99.90;;;;;;5112787;28;20201;-74
2023/07/28 19:10:27;;;;;;;1.23;0.60;;;22.40;99.90;;;;;;5114195;28;20201;-74
2023/07/28 19:12:54;;;;;;;0.70;0.60;;;22.30;99.90;;;;;;5110886;28;20228;-74
2023/07/28 19:15:20;;;;;;;1.13;0.90;;;22.20;99.90;;;;;;5115021;27;20646;-74
2023/07/28 19:17:47;;;;;;;0.90;0.73;;;22.00;99.90;;;;;;5115518;28;20289;-74
2023/07/28 19:20:19;;;;;;;2.78;0.80;;;22.00;99.90;;;;;;5112926;27;20290;-74
2023/07/28 19:22:46;;;;;;;0.80;0.65;;;22.00;99.90;;;;;;5114108;28;20312;-74
2023/07/28 19:25:14;;;;;;;1.13;0.80;;;21.90;99.90;;;;;;5115740;27;20202;-73
2023/07/28 19:27:41;;;;;;;2.55;0.70;;;21.90;99.90;;;;;;5115360;28;20263;-73
2023/07/28 19:30:09;;;;;;;1.35;0.70;;;21.90;99.90;;;;;;5115064;27;20204;-73
2023/07/28 19:32:36;;;;;;;1.70;0.40;;;21.90;99.90;;;;;;5113557;28;20248;-74
2023/07/28 19:35:04;;;;;;;1.30;0.50;;;21.90;99.90;;;;;;5102966;28;20296;-75
2023/07/28 19:37:31;;;;;;;1.10;0.65;;;21.90;99.90;;;;;;5107880;27;20263;-76
2023/07/28 19:39:58;;;;;;;0.68;0.60;;;22.00;99.90;;;;;;5113211;28;20202;-75
2023/07/28 19:42:26;;;;;;;0.65;0.60;;;21.90;99.90;;;;;;5103885;28;20702;-76
2023/07/28 19:44:55;;;;;;;0.90;0.70;;;21.80;99.90;;;;;;5113654;27;20198;-77
2023/07/28 19:47:22;;;;;;;1.42;0.63;;;21.80;99.90;;;;;;5115413;28;20620;-76